sensor_id;sensor_type;location;lat;lon;timestamp;temperature;humidity
20885;DHT22;10602;48.000;9.654;2023-05-10T06:36:16;12.90;99.90
20885;DHT22;10602;48.000;9.654;2023-05-10T06:38:44;12.90;99.90
20885;DHT22;10602;48.000;9.654;2023-05-10T06:41:11;12.80;99.90
20885;DHT22;10602;48.000;9.654;2023-05-10T06:43:39;13.00;99.90
20885;DHT22;10602;48.000;9.654;2023-05-10T06:46:07;13.10;99.90
20885;DHT22;10602;48.000;9.654;2023-05-10T06:48:36;13.20;99.90
20885;DHT22;10602;48.000;9.654;2023-05-10T06:51:03;13.20;99.90
20885;DHT22;10602;48.000;9.654;2023-05-10T06:53:31;13.40;99.90
20885;DHT22;10602;48.000;9.654;2023-05-10T06:55:59;13.30;92.00
20885;DHT22;10602;48.000;9.654;2023-05-10T06:58:26;13.20;99.90
20885;DHT22;10602;48.000;9.654;2023-05-10T07:00:54;13.10;99.90
20885;DHT22;10602;48.000;9.654;2023-05-10T07:03:21;13.00;99.90
20885;DHT22;10602;48.000;9.654;2023-05-10T07:05:49;12.70;99.90
20885;DHT22;10602;48.000;9.654;2023-05-10T07:08:16;12.70;99.90
20885;DHT22;10602;48.000;9.654;2023-05-10T07:10:44;12.70;99.90
20885;DHT22;10602;48.000;9.654;2023-05-10T07:13:12;12.70;99.90
20885;DHT22;10602;48.000;9.654;2023-05-10T07:15:39;12.80;99.90
20885;DHT22;10602;48.000;9.654;2023-05-10T07:18:07;12.90;99.90
20885;DHT22;10602;48.000;9.654;2023-05-10T07:20:34;13.00;99.90
20885;DHT22;10602;48.000;9.654;2023-05-10T07:23:02;13.00;99.90
20885;DHT22;10602;48.000;9.654;2023-05-10T07:25:29;13.00;99.90
20885;DHT22;10602;48.000;9.654;2023-05-10T07:27:57;13.10;99.90
20885;DHT22;10602;48.000;9.654;2023-05-10T07:30:24;13.00;99.90
20885;DHT22;10602;48.000;9.654;2023-05-10T07:32:52;13.00;99.90
20885;DHT22;10602;48.000;9.654;2023-05-10T07:35:19;13.00;99.90
20885;DHT22;10602;48.000;9.654;2023-05-10T07:37:47;12.90;99.90
20885;DHT22;10602;48.000;9.654;2023-05-10T07:40:14;13.10;99.90
20885;DHT22;10602;48.000;9.654;2023-05-10T07:42:42;13.20;99.90
20885;DHT22;10602;48.000;9.654;2023-05-10T07:45:09;13.10;99.90
20885;DHT22;10602;48.000;9.654;2023-05-10T07:47:37;13.40;99.90
20885;DHT22;10602;48.000;9.654;2023-05-10T07:50:05;13.30;98.20
20885;DHT22;10602;48.000;9.654;2023-05-10T07:52:33;13.30;99.90
20885;DHT22;10602;48.000;9.654;2023-05-10T07:55:00;13.40;88.00
20885;DHT22;10602;48.000;9.654;2023-05-10T07:57:28;13.40;87.10
20885;DHT22;10602;48.000;9.654;2023-05-10T07:59:55;13.40;88.30
20885;DHT22;10602;48.000;9.654;2023-05-10T08:02:23;13.40;77.70
20885;DHT22;10602;48.000;9.654;2023-05-10T08:04:50;13.40;93.60
20885;DHT22;10602;48.000;9.654;2023-05-10T08:07:18;13.70;99.90
20885;DHT22;10602;48.000;9.654;2023-05-10T08:09:46;14.00;66.30
20885;DHT22;10602;48.000;9.654;2023-05-10T08:12:13;13.70;47.90
20885;DHT22;10602;48.000;9.654;2023-05-10T08:14:41;13.80;73.10
20885;DHT22;10602;48.000;9.654;2023-05-10T08:17:08;13.70;40.20
20885;DHT22;10602;48.000;9.654;2023-05-10T08:19:36;13.70;42.90
20885;DHT22;10602;48.000;9.654;2023-05-10T08:22:03;13.60;47.90
20885;DHT22;10602;48.000;9.654;2023-05-10T08:24:31;13.60;51.70
20885;DHT22;10602;48.000;9.654;2023-05-10T08:27:01;13.50;28.80
20885;DHT22;10602;48.000;9.654;2023-05-10T08:29:28;13.70;49.80
20885;DHT22;10602;48.000;9.654;2023-05-10T08:31:56;13.70;16.70
20885;DHT22;10602;48.000;9.654;2023-05-10T08:34:23;13.80;38.00
20885;DHT22;10602;48.000;9.654;2023-05-10T08:36:51;13.70;36.50
20885;DHT22;10602;48.000;9.654;2023-05-10T08:39:22;14.00;27.00
20885;DHT22;10602;48.000;9.654;2023-05-10T08:41:51;14.20;18.60
20885;DHT22;10602;48.000;9.654;2023-05-10T08:44:20;14.10;1.00
20885;DHT22;10602;48.000;9.654;2023-05-10T08:46:49;14.20;1.00
20885;DHT22;10602;48.000;9.654;2023-05-10T08:49:20;13.90;1.00
20885;DHT22;10602;48.000;9.654;2023-05-10T08:51:51;13.80;1.00
20885;DHT22;10602;48.000;9.654;2023-05-10T08:54:19;14.00;1.00
20885;DHT22;10602;48.000;9.654;2023-05-10T08:56:47;14.10;1.00
20885;DHT22;10602;48.000;9.654;2023-05-10T08:59:14;14.30;1.00
20885;DHT22;10602;48.000;9.654;2023-05-10T09:01:43;14.30;1.00
20885;DHT22;10602;48.000;9.654;2023-05-10T09:04:12;14.30;1.00
20885;DHT22;10602;48.000;9.654;2023-05-10T09:06:40;14.40;1.00
20885;DHT22;10602;48.000;9.654;2023-05-10T09:09:08;14.50;1.00
20885;DHT22;10602;48.000;9.654;2023-05-10T09:11:35;14.40;1.00
20885;DHT22;10602;48.000;9.654;2023-05-10T09:14:03;14.50;1.00
20885;DHT22;10602;48.000;9.654;2023-05-10T09:16:31;14.50;1.00
20885;DHT22;10602;48.000;9.654;2023-05-10T09:18:58;14.60;1.00
20885;DHT22;10602;48.000;9.654;2023-05-10T09:21:26;14.60;1.00
20885;DHT22;10602;48.000;9.654;2023-05-10T09:23:54;14.70;1.00
20885;DHT22;10602;48.000;9.654;2023-05-10T09:26:26;14.80;1.00
20885;DHT22;10602;48.000;9.654;2023-05-10T09:28:56;14.60;1.00
20885;DHT22;10602;48.000;9.654;2023-05-10T09:31:23;14.80;1.00
20885;DHT22;10602;48.000;9.654;2023-05-10T09:33:54;15.10;1.00
20885;DHT22;10602;48.000;9.654;2023-05-10T09:36:22;15.00;1.00
20885;DHT22;10602;48.000;9.654;2023-05-10T09:38:51;14.90;1.00
20885;DHT22;10602;48.000;9.654;2023-05-10T13:53:54;12.40;55.80
20885;DHT22;10602;48.000;9.654;2023-05-10T13:56:22;12.40;71.20
20885;DHT22;10602;48.000;9.654;2023-05-10T13:58:49;12.40;55.80
20885;DHT22;10602;48.000;9.654;2023-05-10T14:01:17;12.40;84.40
20885;DHT22;10602;48.000;9.654;2023-05-10T14:03:45;12.50;77.40
20885;DHT22;10602;48.000;9.654;2023-05-10T14:06:13;12.40;37.70
20885;DHT22;10602;48.000;9.654;2023-05-10T14:08:40;12.30;55.50
20885;DHT22;10602;48.000;9.654;2023-05-10T14:11:08;12.20;90.30
20885;DHT22;10602;48.000;9.654;2023-05-10T14:13:35;12.10;64.20
20885;DHT22;10602;48.000;9.654;2023-05-10T14:16:05;12.10;44.60
20885;DHT22;10602;48.000;9.654;2023-05-10T14:21:08;12.40;42.80
20885;DHT22;10602;48.000;9.654;2023-05-10T14:23:36;12.60;33.10
20885;DHT22;10602;48.000;9.654;2023-05-10T14:26:03;12.80;45.30
20885;DHT22;10602;48.000;9.654;2023-05-10T14:28:31;12.90;1.00
20885;DHT22;10602;48.000;9.654;2023-05-10T14:30:59;13.00;1.00
20885;DHT22;10602;48.000;9.654;2023-05-10T14:33:26;13.10;1.00
20885;DHT22;10602;48.000;9.654;2023-05-10T14:35:56;13.20;1.00
20885;DHT22;10602;48.000;9.654;2023-05-10T14:38:26;13.30;1.00
20885;DHT22;10602;48.000;9.654;2023-05-10T14:40:53;13.30;1.00
20885;DHT22;10602;48.000;9.654;2023-05-10T14:43:21;13.30;1.00
20885;DHT22;10602;48.000;9.654;2023-05-10T14:45:48;13.50;1.00
20885;DHT22;10602;48.000;9.654;2023-05-10T14:48:16;13.50;1.00
20885;DHT22;10602;48.000;9.654;2023-05-10T14:50:44;13.60;1.00
20885;DHT22;10602;48.000;9.654;2023-05-10T14:53:12;13.50;1.00
20885;DHT22;10602;48.000;9.654;2023-05-10T14:55:40;13.50;1.00
20885;DHT22;10602;48.000;9.654;2023-05-10T14:58:07;13.50;1.00
20885;DHT22;10602;48.000;9.654;2023-05-10T15:00:35;13.50;1.00
20885;DHT22;10602;48.000;9.654;2023-05-10T15:03:02;13.40;1.00
20885;DHT22;10602;48.000;9.654;2023-05-10T15:05:30;13.50;1.00
20885;DHT22;10602;48.000;9.654;2023-05-10T15:07:57;13.60;1.00
20885;DHT22;10602;48.000;9.654;2023-05-10T15:10:25;13.60;1.00
20885;DHT22;10602;48.000;9.654;2023-05-10T15:12:52;13.70;1.00
20885;DHT22;10602;48.000;9.654;2023-05-10T15:15:20;13.70;1.00
20885;DHT22;10602;48.000;9.654;2023-05-10T15:17:48;13.60;1.00
20885;DHT22;10602;48.000;9.654;2023-05-10T15:20:15;13.60;1.00
20885;DHT22;10602;48.000;9.654;2023-05-10T15:22:43;13.60;1.00
20885;DHT22;10602;48.000;9.654;2023-05-10T15:25:10;13.60;1.00
20885;DHT22;10602;48.000;9.654;2023-05-10T15:27:38;13.60;1.00
20885;DHT22;10602;48.000;9.654;2023-05-10T15:30:06;13.60;1.00
20885;DHT22;10602;48.000;9.654;2023-05-10T15:32:34;13.80;1.00
20885;DHT22;10602;48.000;9.654;2023-05-10T15:35:02;13.80;1.00
20885;DHT22;10602;48.000;9.654;2023-05-10T15:37:29;13.70;1.00
20885;DHT22;10602;48.000;9.654;2023-05-10T15:39:57;13.70;1.00
20885;DHT22;10602;48.000;9.654;2023-05-10T15:42:26;13.40;1.00
20885;DHT22;10602;48.000;9.654;2023-05-10T15:44:54;13.10;1.00
20885;DHT22;10602;48.000;9.654;2023-05-10T15:47:22;12.90;1.00
20885;DHT22;10602;48.000;9.654;2023-05-10T15:49:50;12.80;21.90
20885;DHT22;10602;48.000;9.654;2023-05-10T15:52:17;12.70;58.60
20885;DHT22;10602;48.000;9.654;2023-05-10T15:54:46;12.70;93.00
20885;DHT22;10602;48.000;9.654;2023-05-10T15:57:13;12.70;99.90
20885;DHT22;10602;48.000;9.654;2023-05-10T15:59:41;12.50;74.90
20885;DHT22;10602;48.000;9.654;2023-05-10T16:02:09;12.40;98.40
20885;DHT22;10602;48.000;9.654;2023-05-10T16:04:37;12.50;99.90
20885;DHT22;10602;48.000;9.654;2023-05-10T16:07:04;12.40;61.10
20885;DHT22;10602;48.000;9.654;2023-05-10T16:09:32;12.40;92.60
20885;DHT22;10602;48.000;9.654;2023-05-10T16:11:59;12.30;94.60
20885;DHT22;10602;48.000;9.654;2023-05-10T16:14:28;12.30;99.90
20885;DHT22;10602;48.000;9.654;2023-05-10T16:16:55;12.30;99.90
20885;DHT22;10602;48.000;9.654;2023-05-10T16:19:23;12.40;99.00
20885;DHT22;10602;48.000;9.654;2023-05-10T16:21:50;12.40;97.20
20885;DHT22;10602;48.000;9.654;2023-05-10T16:24:18;12.50;90.80
20885;DHT22;10602;48.000;9.654;2023-05-10T16:26:46;12.60;93.50
20885;DHT22;10602;48.000;9.654;2023-05-10T16:29:13;12.70;93.80
20885;DHT22;10602;48.000;9.654;2023-05-10T16:31:41;12.70;93.70
20885;DHT22;10602;48.000;9.654;2023-05-10T16:34:09;12.80;91.30
20885;DHT22;10602;48.000;9.654;2023-05-10T16:36:36;12.90;78.50
20885;DHT22;10602;48.000;9.654;2023-05-10T16:39:04;12.90;56.20
20885;DHT22;10602;48.000;9.654;2023-05-10T16:41:35;12.90;47.00
20885;DHT22;10602;48.000;9.654;2023-05-10T16:44:02;12.90;44.30
20885;DHT22;10602;48.000;9.654;2023-05-10T16:46:30;12.90;45.10
20885;DHT22;10602;48.000;9.654;2023-05-10T16:48:59;12.90;44.20
20885;DHT22;10602;48.000;9.654;2023-05-10T16:51:26;12.90;42.10
20885;DHT22;10602;48.000;9.654;2023-05-10T16:53:54;12.90;45.40
20885;DHT22;10602;48.000;9.654;2023-05-10T16:56:22;12.80;57.30
20885;DHT22;10602;48.000;9.654;2023-05-10T16:58:49;12.70;63.60
20885;DHT22;10602;48.000;9.654;2023-05-10T17:01:17;12.60;75.10
20885;DHT22;10602;48.000;9.654;2023-05-10T17:03:45;12.60;93.20
20885;DHT22;10602;48.000;9.654;2023-05-10T17:06:12;12.50;99.90
20885;DHT22;10602;48.000;9.654;2023-05-10T17:08:40;12.40;99.90
20885;DHT22;10602;48.000;9.654;2023-05-10T17:11:07;12.20;99.90
20885;DHT22;10602;48.000;9.654;2023-05-10T17:13:35;12.00;99.90
20885;DHT22;10602;48.000;9.654;2023-05-10T17:16:04;11.90;99.90
20885;DHT22;10602;48.000;9.654;2023-05-10T17:18:32;11.80;99.90
20885;DHT22;10602;48.000;9.654;2023-05-10T17:20:59;11.80;99.90
20885;DHT22;10602;48.000;9.654;2023-05-10T17:23:27;11.70;99.90
20885;DHT22;10602;48.000;9.654;2023-05-10T17:25:55;11.80;99.90
20885;DHT22;10602;48.000;9.654;2023-05-10T17:28:23;11.70;99.90
20885;DHT22;10602;48.000;9.654;2023-05-10T17:30:57;11.80;99.90
20885;DHT22;10602;48.000;9.654;2023-05-10T17:33:25;11.90;99.90
20885;DHT22;10602;48.000;9.654;2023-05-10T17:35:52;11.90;99.90
20885;DHT22;10602;48.000;9.654;2023-05-10T17:38:20;11.80;99.90
20885;DHT22;10602;48.000;9.654;2023-05-10T17:40:47;11.60;99.90
20885;DHT22;10602;48.000;9.654;2023-05-10T17:43:15;11.50;99.60
20885;DHT22;10602;48.000;9.654;2023-05-10T17:45:42;11.40;99.90
20885;DHT22;10602;48.000;9.654;2023-05-10T17:48:11;11.30;99.90
20885;DHT22;10602;48.000;9.654;2023-05-10T17:50:41;11.20;99.90
20885;DHT22;10602;48.000;9.654;2023-05-10T17:53:09;11.10;99.90
20885;DHT22;10602;48.000;9.654;2023-05-10T17:55:39;11.00;99.90
20885;DHT22;10602;48.000;9.654;2023-05-10T17:58:08;10.90;99.90
20885;DHT22;10602;48.000;9.654;2023-05-10T18:00:35;10.90;99.90
20885;DHT22;10602;48.000;9.654;2023-05-10T18:03:04;11.00;99.90
20885;DHT22;10602;48.000;9.654;2023-05-10T18:05:36;11.00;99.90
20885;DHT22;10602;48.000;9.654;2023-05-10T18:08:05;11.00;99.90
20885;DHT22;10602;48.000;9.654;2023-05-10T18:10:32;11.00;99.90
20885;DHT22;10602;48.000;9.654;2023-05-10T18:13:00;11.00;99.90
20885;DHT22;10602;48.000;9.654;2023-05-10T18:15:33;11.00;99.90
20885;DHT22;10602;48.000;9.654;2023-05-10T18:18:03;11.10;99.90
20885;DHT22;10602;48.000;9.654;2023-05-10T18:20:31;11.10;99.90
20885;DHT22;10602;48.000;9.654;2023-05-10T18:22:58;10.90;99.90
20885;DHT22;10602;48.000;9.654;2023-05-10T18:25:26;10.80;99.90
20885;DHT22;10602;48.000;9.654;2023-05-10T18:27:54;10.70;99.90
20885;DHT22;10602;48.000;9.654;2023-05-10T18:30:21;10.60;99.90
20885;DHT22;10602;48.000;9.654;2023-05-10T18:32:49;10.50;99.90
20885;DHT22;10602;48.000;9.654;2023-05-10T18:35:16;10.40;99.90
20885;DHT22;10602;48.000;9.654;2023-05-10T18:37:44;10.40;99.90
20885;DHT22;10602;48.000;9.654;2023-05-10T18:40:12;10.30;99.90
20885;DHT22;10602;48.000;9.654;2023-05-10T18:42:40;10.30;99.90
20885;DHT22;10602;48.000;9.654;2023-05-10T18:45:08;10.20;99.90
20885;DHT22;10602;48.000;9.654;2023-05-10T18:47:36;10.20;99.90
20885;DHT22;10602;48.000;9.654;2023-05-10T18:50:04;10.20;99.90
20885;DHT22;10602;48.000;9.654;2023-05-10T18:52:31;10.20;99.90
20885;DHT22;10602;48.000;9.654;2023-05-10T18:54:59;10.10;99.90
20885;DHT22;10602;48.000;9.654;2023-05-10T18:57:26;10.10;99.90
20885;DHT22;10602;48.000;9.654;2023-05-10T18:59:54;10.10;99.90
20885;DHT22;10602;48.000;9.654;2023-05-10T19:02:22;10.10;99.90
20885;DHT22;10602;48.000;9.654;2023-05-10T19:04:51;10.10;99.90
20885;DHT22;10602;48.000;9.654;2023-05-10T19:07:18;10.00;99.90
20885;DHT22;10602;48.000;9.654;2023-05-10T19:09:46;10.00;99.90
20885;DHT22;10602;48.000;9.654;2023-05-10T19:12:13;10.00;99.90
20885;DHT22;10602;48.000;9.654;2023-05-10T19:14:41;10.10;99.90
20885;DHT22;10602;48.000;9.654;2023-05-10T19:17:08;10.00;99.90
20885;DHT22;10602;48.000;9.654;2023-05-10T19:19:36;10.00;99.90
20885;DHT22;10602;48.000;9.654;2023-05-10T19:22:03;10.00;99.90
20885;DHT22;10602;48.000;9.654;2023-05-10T19:24:32;10.10;99.90
20885;DHT22;10602;48.000;9.654;2023-05-10T19:27:00;10.10;99.90
20885;DHT22;10602;48.000;9.654;2023-05-10T19:29:28;10.10;99.90
20885;DHT22;10602;48.000;9.654;2023-05-10T19:31:55;10.10;99.90
20885;DHT22;10602;48.000;9.654;2023-05-10T19:34:23;10.20;99.90
20885;DHT22;10602;48.000;9.654;2023-05-10T19:36:50;10.10;99.90
20885;DHT22;10602;48.000;9.654;2023-05-10T19:39:18;10.10;99.90
20885;DHT22;10602;48.000;9.654;2023-05-10T19:41:46;10.20;99.90
20885;DHT22;10602;48.000;9.654;2023-05-10T19:44:14;10.10;99.90
20885;DHT22;10602;48.000;9.654;2023-05-10T19:46:42;10.10;99.90
20885;DHT22;10602;48.000;9.654;2023-05-10T19:49:09;10.20;99.90
20885;DHT22;10602;48.000;9.654;2023-05-10T19:51:37;10.20;99.90
20885;DHT22;10602;48.000;9.654;2023-05-10T19:54:04;10.20;99.90
20885;DHT22;10602;48.000;9.654;2023-05-10T19:56:32;10.20;99.90
20885;DHT22;10602;48.000;9.654;2023-05-10T19:59:00;10.20;99.90
20885;DHT22;10602;48.000;9.654;2023-05-10T20:01:29;10.20;99.90
20885;DHT22;10602;48.000;9.654;2023-05-10T20:03:58;10.20;99.90
20885;DHT22;10602;48.000;9.654;2023-05-10T20:06:25;10.20;99.90
20885;DHT22;10602;48.000;9.654;2023-05-10T20:08:52;10.20;99.90
20885;DHT22;10602;48.000;9.654;2023-05-10T20:11:20;10.20;99.90
20885;DHT22;10602;48.000;9.654;2023-05-10T20:13:48;10.30;99.90
20885;DHT22;10602;48.000;9.654;2023-05-10T20:16:15;10.40;99.90
20885;DHT22;10602;48.000;9.654;2023-05-10T20:18:43;10.30;99.90
20885;DHT22;10602;48.000;9.654;2023-05-10T20:21:11;10.30;99.90
20885;DHT22;10602;48.000;9.654;2023-05-10T20:23:39;10.30;99.90
20885;DHT22;10602;48.000;9.654;2023-05-10T20:26:07;10.20;99.90
20885;DHT22;10602;48.000;9.654;2023-05-10T20:28:35;10.20;99.90
20885;DHT22;10602;48.000;9.654;2023-05-10T20:31:03;10.20;99.90
20885;DHT22;10602;48.000;9.654;2023-05-10T20:33:30;10.30;99.90
20885;DHT22;10602;48.000;9.654;2023-05-10T20:35:58;10.20;99.90
20885;DHT22;10602;48.000;9.654;2023-05-10T20:38:26;10.20;99.90
20885;DHT22;10602;48.000;9.654;2023-05-10T20:40:53;10.10;99.90
20885;DHT22;10602;48.000;9.654;2023-05-10T20:43:21;10.20;99.90
20885;DHT22;10602;48.000;9.654;2023-05-10T20:45:48;10.10;99.90
20885;DHT22;10602;48.000;9.654;2023-05-10T20:48:16;10.00;99.90
20885;DHT22;10602;48.000;9.654;2023-05-10T20:50:44;10.00;99.90
20885;DHT22;10602;48.000;9.654;2023-05-10T20:53:11;10.00;99.90
20885;DHT22;10602;48.000;9.654;2023-05-10T20:55:40;10.00;99.90
20885;DHT22;10602;48.000;9.654;2023-05-10T20:58:07;10.10;99.90
20885;DHT22;10602;48.000;9.654;2023-05-10T21:00:35;10.00;99.90
20885;DHT22;10602;48.000;9.654;2023-05-10T21:03:03;10.00;99.90
20885;DHT22;10602;48.000;9.654;2023-05-10T21:05:31;9.90;99.90
20885;DHT22;10602;48.000;9.654;2023-05-10T21:07:58;9.90;99.90
20885;DHT22;10602;48.000;9.654;2023-05-10T21:10:26;9.90;99.90
20885;DHT22;10602;48.000;9.654;2023-05-10T21:12:57;9.80;99.90
20885;DHT22;10602;48.000;9.654;2023-05-10T21:15:24;9.80;99.90
20885;DHT22;10602;48.000;9.654;2023-05-10T21:17:53;9.80;99.90
20885;DHT22;10602;48.000;9.654;2023-05-10T21:20:21;9.80;99.90
20885;DHT22;10602;48.000;9.654;2023-05-10T21:22:49;9.80;99.90
20885;DHT22;10602;48.000;9.654;2023-05-10T21:25:16;9.80;99.90
20885;DHT22;10602;48.000;9.654;2023-05-10T21:27:44;9.80;99.90
20885;DHT22;10602;48.000;9.654;2023-05-10T21:30:12;9.80;99.90
20885;DHT22;10602;48.000;9.654;2023-05-10T21:32:40;9.80;99.90
20885;DHT22;10602;48.000;9.654;2023-05-10T21:35:08;9.80;99.90
20885;DHT22;10602;48.000;9.654;2023-05-10T21:37:35;9.80;99.90
20885;DHT22;10602;48.000;9.654;2023-05-10T21:40:03;9.70;99.90
20885;DHT22;10602;48.000;9.654;2023-05-10T21:42:31;9.70;99.90
20885;DHT22;10602;48.000;9.654;2023-05-10T21:44:58;9.60;99.90
20885;DHT22;10602;48.000;9.654;2023-05-10T21:47:26;9.60;99.90
20885;DHT22;10602;48.000;9.654;2023-05-10T21:49:53;9.60;99.90
20885;DHT22;10602;48.000;9.654;2023-05-10T21:52:21;9.60;99.90
20885;DHT22;10602;48.000;9.654;2023-05-10T21:54:49;9.70;99.90
20885;DHT22;10602;48.000;9.654;2023-05-10T21:57:16;9.70;99.90
20885;DHT22;10602;48.000;9.654;2023-05-10T21:59:44;9.70;99.90
20885;DHT22;10602;48.000;9.654;2023-05-10T22:02:11;9.60;99.90
20885;DHT22;10602;48.000;9.654;2023-05-10T22:04:39;9.60;99.90
20885;DHT22;10602;48.000;9.654;2023-05-10T22:07:06;9.70;99.90
20885;DHT22;10602;48.000;9.654;2023-05-10T22:09:34;9.60;99.90
20885;DHT22;10602;48.000;9.654;2023-05-10T22:12:01;9.60;99.90
20885;DHT22;10602;48.000;9.654;2023-05-10T22:14:29;9.60;99.90
20885;DHT22;10602;48.000;9.654;2023-05-10T22:16:56;9.50;99.90
20885;DHT22;10602;48.000;9.654;2023-05-10T22:19:24;9.50;99.90
20885;DHT22;10602;48.000;9.654;2023-05-10T22:21:52;9.40;99.90
20885;DHT22;10602;48.000;9.654;2023-05-10T22:24:19;9.50;99.90
20885;DHT22;10602;48.000;9.654;2023-05-10T22:26:47;9.50;99.90
20885;DHT22;10602;48.000;9.654;2023-05-10T22:29:14;9.40;99.90
20885;DHT22;10602;48.000;9.654;2023-05-10T22:31:42;9.40;99.90
20885;DHT22;10602;48.000;9.654;2023-05-10T22:34:09;9.30;99.90
20885;DHT22;10602;48.000;9.654;2023-05-10T22:36:37;9.30;99.90
20885;DHT22;10602;48.000;9.654;2023-05-10T22:39:04;9.30;99.90
